sensor_id;sensor_type;location;lat;lon;timestamp;temperature;humidity
48264;DHT22;34086;51.076;13.722;2023-03-14T00:00:16;10.70;99.90
48264;DHT22;34086;51.076;13.722;2023-03-14T00:01:18;10.70;99.90
48264;DHT22;34086;51.076;13.722;2023-03-14T00:02:20;10.70;99.90
48264;DHT22;34086;51.076;13.722;2023-03-14T00:03:21;10.70;99.90
48264;DHT22;34086;51.076;13.722;2023-03-14T00:04:21;10.70;99.90
48264;DHT22;34086;51.076;13.722;2023-03-14T00:05:22;10.70;99.90
48264;DHT22;34086;51.076;13.722;2023-03-14T00:06:23;10.70;99.90
48264;DHT22;34086;51.076;13.722;2023-03-14T00:07:23;10.70;99.90
48264;DHT22;34086;51.076;13.722;2023-03-14T00:08:25;10.70;99.90
48264;DHT22;34086;51.076;13.722;2023-03-14T00:09:26;10.70;99.90
48264;DHT22;34086;51.076;13.722;2023-03-14T00:10:27;10.80;99.90
48264;DHT22;34086;51.076;13.722;2023-03-14T00:11:27;10.70;99.90
48264;DHT22;34086;51.076;13.722;2023-03-14T00:12:28;10.70;99.90
48264;DHT22;34086;51.076;13.722;2023-03-14T00:13:28;10.70;99.90
48264;DHT22;34086;51.076;13.722;2023-03-14T00:14:30;10.70;99.90
48264;DHT22;34086;51.076;13.722;2023-03-14T00:15:35;10.70;99.90
48264;DHT22;34086;51.076;13.722;2023-03-14T00:16:35;10.70;99.90
48264;DHT22;34086;51.076;13.722;2023-03-14T00:17:36;10.70;99.90
48264;DHT22;34086;51.076;13.722;2023-03-14T00:18:37;10.70;99.90
48264;DHT22;34086;51.076;13.722;2023-03-14T00:19:38;10.70;99.90
48264;DHT22;34086;51.076;13.722;2023-03-14T00:20:39;10.70;99.90
48264;DHT22;34086;51.076;13.722;2023-03-14T00:21:39;10.70;99.90
48264;DHT22;34086;51.076;13.722;2023-03-14T00:22:41;10.70;99.90
48264;DHT22;34086;51.076;13.722;2023-03-14T00:23:42;10.70;99.90
48264;DHT22;34086;51.076;13.722;2023-03-14T00:24:43;10.70;99.90
48264;DHT22;34086;51.076;13.722;2023-03-14T00:25:43;10.70;99.90
48264;DHT22;34086;51.076;13.722;2023-03-14T00:26:44;10.70;99.90
48264;DHT22;34086;51.076;13.722;2023-03-14T00:27:44;10.70;99.90
48264;DHT22;34086;51.076;13.722;2023-03-14T00:28:51;10.70;99.90
48264;DHT22;34086;51.076;13.722;2023-03-14T00:29:52;10.70;99.90
48264;DHT22;34086;51.076;13.722;2023-03-14T00:30:52;10.70;99.90
48264;DHT22;34086;51.076;13.722;2023-03-14T00:31:53;10.70;99.90
48264;DHT22;34086;51.076;13.722;2023-03-14T00:32:53;10.70;99.90
48264;DHT22;34086;51.076;13.722;2023-03-14T00:33:54;10.70;99.90
48264;DHT22;34086;51.076;13.722;2023-03-14T00:34:55;10.70;99.90
48264;DHT22;34086;51.076;13.722;2023-03-14T00:36:00;10.60;99.90
48264;DHT22;34086;51.076;13.722;2023-03-14T00:37:03;10.60;99.90
48264;DHT22;34086;51.076;13.722;2023-03-14T00:38:04;10.60;99.90
48264;DHT22;34086;51.076;13.722;2023-03-14T00:39:04;10.60;99.90
48264;DHT22;34086;51.076;13.722;2023-03-14T00:40:07;10.60;99.90
48264;DHT22;34086;51.076;13.722;2023-03-14T00:41:11;10.60;99.90
48264;DHT22;34086;51.076;13.722;2023-03-14T00:42:11;10.50;99.90
48264;DHT22;34086;51.076;13.722;2023-03-14T00:43:12;10.50;99.90
48264;DHT22;34086;51.076;13.722;2023-03-14T00:44:12;10.50;99.90
48264;DHT22;34086;51.076;13.722;2023-03-14T00:45:13;10.50;99.90
48264;DHT22;34086;51.076;13.722;2023-03-14T00:46:14;10.40;99.90
48264;DHT22;34086;51.076;13.722;2023-03-14T00:47:14;10.40;99.90
48264;DHT22;34086;51.076;13.722;2023-03-14T00:48:18;10.40;99.90
48264;DHT22;34086;51.076;13.722;2023-03-14T00:49:19;10.40;99.90
48264;DHT22;34086;51.076;13.722;2023-03-14T00:50:19;10.40;99.90
48264;DHT22;34086;51.076;13.722;2023-03-14T00:51:20;10.30;99.90
48264;DHT22;34086;51.076;13.722;2023-03-14T00:52:20;10.30;99.90
48264;DHT22;34086;51.076;13.722;2023-03-14T00:53:21;10.30;99.90
48264;DHT22;34086;51.076;13.722;2023-03-14T00:54:22;10.30;99.90
48264;DHT22;34086;51.076;13.722;2023-03-14T00:55:22;10.30;99.90
48264;DHT22;34086;51.076;13.722;2023-03-14T00:56:23;10.30;99.90
48264;DHT22;34086;51.076;13.722;2023-03-14T00:57:23;10.30;99.90
48264;DHT22;34086;51.076;13.722;2023-03-14T00:58:24;10.30;99.90
48264;DHT22;34086;51.076;13.722;2023-03-14T00:59:24;10.30;99.90
48264;DHT22;34086;51.076;13.722;2023-03-14T01:00:25;10.40;99.90
48264;DHT22;34086;51.076;13.722;2023-03-14T01:01:26;10.40;99.90
48264;DHT22;34086;51.076;13.722;2023-03-14T01:02:26;10.40;99.90
48264;DHT22;34086;51.076;13.722;2023-03-14T01:03:27;10.30;99.90
48264;DHT22;34086;51.076;13.722;2023-03-14T01:04:27;10.30;99.90
48264;DHT22;34086;51.076;13.722;2023-03-14T01:05:29;10.30;99.90
48264;DHT22;34086;51.076;13.722;2023-03-14T01:06:30;10.30;99.90
48264;DHT22;34086;51.076;13.722;2023-03-14T01:07:31;10.30;99.90
48264;DHT22;34086;51.076;13.722;2023-03-14T01:08:32;10.30;99.90
48264;DHT22;34086;51.076;13.722;2023-03-14T01:09:33;10.30;99.90
48264;DHT22;34086;51.076;13.722;2023-03-14T01:10:37;10.30;99.90
48264;DHT22;34086;51.076;13.722;2023-03-14T01:11:39;10.30;99.90
48264;DHT22;34086;51.076;13.722;2023-03-14T01:12:40;10.30;99.90
48264;DHT22;34086;51.076;13.722;2023-03-14T01:13:41;10.30;99.90
48264;DHT22;34086;51.076;13.722;2023-03-14T01:14:42;10.30;99.90
48264;DHT22;34086;51.076;13.722;2023-03-14T01:15:42;10.30;99.90
48264;DHT22;34086;51.076;13.722;2023-03-14T01:16:45;10.30;99.90
48264;DHT22;34086;51.076;13.722;2023-03-14T01:17:46;10.20;99.90
48264;DHT22;34086;51.076;13.722;2023-03-14T01:18:47;10.20;99.90
48264;DHT22;34086;51.076;13.722;2023-03-14T01:19:48;10.20;99.90
48264;DHT22;34086;51.076;13.722;2023-03-14T01:20:49;10.20;99.90
48264;DHT22;34086;51.076;13.722;2023-03-14T01:21:50;10.20;99.90
48264;DHT22;34086;51.076;13.722;2023-03-14T01:22:50;10.20;99.90
48264;DHT22;34086;51.076;13.722;2023-03-14T01:23:53;10.20;99.90
48264;DHT22;34086;51.076;13.722;2023-03-14T01:24:53;10.20;99.90
48264;DHT22;34086;51.076;13.722;2023-03-14T01:25:54;10.20;99.90
48264;DHT22;34086;51.076;13.722;2023-03-14T01:26:54;10.20;99.90
48264;DHT22;34086;51.076;13.722;2023-03-14T01:27:56;10.20;99.90
48264;DHT22;34086;51.076;13.722;2023-03-14T01:28:57;10.20;99.90
48264;DHT22;34086;51.076;13.722;2023-03-14T01:29:58;10.20;99.90
48264;DHT22;34086;51.076;13.722;2023-03-14T01:31:07;10.20;99.90
48264;DHT22;34086;51.076;13.722;2023-03-14T01:32:07;10.20;99.90
48264;DHT22;34086;51.076;13.722;2023-03-14T01:33:08;10.20;99.90
48264;DHT22;34086;51.076;13.722;2023-03-14T01:34:09;10.20;99.90
48264;DHT22;34086;51.076;13.722;2023-03-14T01:35:09;10.20;99.90
48264;DHT22;34086;51.076;13.722;2023-03-14T01:36:10;10.20;99.90
48264;DHT22;34086;51.076;13.722;2023-03-14T01:37:11;10.20;99.90
48264;DHT22;34086;51.076;13.722;2023-03-14T01:38:12;10.20;99.90
48264;DHT22;34086;51.076;13.722;2023-03-14T01:39:13;10.20;99.90
48264;DHT22;34086;51.076;13.722;2023-03-14T01:40:14;10.20;99.90
48264;DHT22;34086;51.076;13.722;2023-03-14T01:41:21;10.20;99.90
48264;DHT22;34086;51.076;13.722;2023-03-14T01:42:23;10.20;99.90
48264;DHT22;34086;51.076;13.722;2023-03-14T01:43:24;10.20;99.90
48264;DHT22;34086;51.076;13.722;2023-03-14T01:44:24;10.20;99.90
48264;DHT22;34086;51.076;13.722;2023-03-14T01:46:56;10.20;99.90
48264;DHT22;34086;51.076;13.722;2023-03-14T01:47:57;10.20;99.90
48264;DHT22;34086;51.076;13.722;2023-03-14T01:50:11;10.20;99.90
48264;DHT22;34086;51.076;13.722;2023-03-14T01:51:19;10.20;99.90
48264;DHT22;34086;51.076;13.722;2023-03-14T01:52:28;10.20;99.90
48264;DHT22;34086;51.076;13.722;2023-03-14T01:53:32;10.20;99.90
48264;DHT22;34086;51.076;13.722;2023-03-14T01:54:39;10.20;99.90
48264;DHT22;34086;51.076;13.722;2023-03-14T01:55:41;10.20;99.90
48264;DHT22;34086;51.076;13.722;2023-03-14T01:56:45;10.20;99.90
48264;DHT22;34086;51.076;13.722;2023-03-14T01:57:56;10.30;99.90
48264;DHT22;34086;51.076;13.722;2023-03-14T01:59:00;10.40;99.90
48264;DHT22;34086;51.076;13.722;2023-03-14T02:00:10;10.40;99.90
48264;DHT22;34086;51.076;13.722;2023-03-14T02:01:16;10.50;99.90
48264;DHT22;34086;51.076;13.722;2023-03-14T02:02:18;10.60;99.90
48264;DHT22;34086;51.076;13.722;2023-03-14T02:03:20;10.60;99.90
48264;DHT22;34086;51.076;13.722;2023-03-14T02:04:22;10.70;99.90
48264;DHT22;34086;51.076;13.722;2023-03-14T02:05:32;10.70;99.90
48264;DHT22;34086;51.076;13.722;2023-03-14T02:06:47;10.70;99.90
48264;DHT22;34086;51.076;13.722;2023-03-14T02:07:52;10.70;99.90
48264;DHT22;34086;51.076;13.722;2023-03-14T02:09:00;10.70;99.90
48264;DHT22;34086;51.076;13.722;2023-03-14T02:10:04;10.70;99.90
48264;DHT22;34086;51.076;13.722;2023-03-14T02:11:07;10.70;99.90
48264;DHT22;34086;51.076;13.722;2023-03-14T02:12:20;10.70;99.90
48264;DHT22;34086;51.076;13.722;2023-03-14T02:13:26;10.70;99.90
48264;DHT22;34086;51.076;13.722;2023-03-14T02:14:45;10.70;99.90
48264;DHT22;34086;51.076;13.722;2023-03-14T02:16:15;10.70;99.90
48264;DHT22;34086;51.076;13.722;2023-03-14T02:17:25;10.80;99.90
48264;DHT22;34086;51.076;13.722;2023-03-14T02:18:44;10.80;99.90
48264;DHT22;34086;51.076;13.722;2023-03-14T02:22:02;10.80;99.90
48264;DHT22;34086;51.076;13.722;2023-03-14T02:23:12;10.80;99.90
48264;DHT22;34086;51.076;13.722;2023-03-14T02:24:31;10.80;99.90
48264;DHT22;34086;51.076;13.722;2023-03-14T02:27:26;10.80;99.90
48264;DHT22;34086;51.076;13.722;2023-03-14T02:28:27;10.80;99.90
48264;DHT22;34086;51.076;13.722;2023-03-14T02:29:33;10.80;99.90
48264;DHT22;34086;51.076;13.722;2023-03-14T02:30:37;10.80;99.90
48264;DHT22;34086;51.076;13.722;2023-03-14T02:31:39;10.80;99.90
48264;DHT22;34086;51.076;13.722;2023-03-14T02:32:43;10.80;99.90
48264;DHT22;34086;51.076;13.722;2023-03-14T02:33:44;10.90;99.90
48264;DHT22;34086;51.076;13.722;2023-03-14T02:34:49;10.90;99.90
48264;DHT22;34086;51.076;13.722;2023-03-14T02:35:55;10.90;99.90
48264;DHT22;34086;51.076;13.722;2023-03-14T02:36:57;10.90;99.90
48264;DHT22;34086;51.076;13.722;2023-03-14T02:39:43;10.80;99.90
48264;DHT22;34086;51.076;13.722;2023-03-14T02:40:45;10.80;99.90
48264;DHT22;34086;51.076;13.722;2023-03-14T02:41:46;10.80;99.90
48264;DHT22;34086;51.076;13.722;2023-03-14T02:42:49;10.80;99.90
48264;DHT22;34086;51.076;13.722;2023-03-14T02:43:51;10.70;99.90
48264;DHT22;34086;51.076;13.722;2023-03-14T02:44:54;10.80;99.90
48264;DHT22;34086;51.076;13.722;2023-03-14T02:45:55;10.70;99.90
48264;DHT22;34086;51.076;13.722;2023-03-14T02:46:57;10.70;99.90
48264;DHT22;34086;51.076;13.722;2023-03-14T02:48:02;10.70;99.90
48264;DHT22;34086;51.076;13.722;2023-03-14T02:49:14;10.70;99.90
48264;DHT22;34086;51.076;13.722;2023-03-14T02:50:18;10.70;99.90
48264;DHT22;34086;51.076;13.722;2023-03-14T02:51:21;10.70;99.90
48264;DHT22;34086;51.076;13.722;2023-03-14T02:52:22;10.80;99.90
48264;DHT22;34086;51.076;13.722;2023-03-14T02:53:28;10.80;99.90
48264;DHT22;34086;51.076;13.722;2023-03-14T02:54:32;10.90;99.90
48264;DHT22;34086;51.076;13.722;2023-03-14T02:55:33;11.00;99.90
48264;DHT22;34086;51.076;13.722;2023-03-14T02:56:39;11.00;99.90
48264;DHT22;34086;51.076;13.722;2023-03-14T02:57:40;11.00;99.90
48264;DHT22;34086;51.076;13.722;2023-03-14T02:58:41;11.10;99.90
48264;DHT22;34086;51.076;13.722;2023-03-14T03:00:08;11.00;99.90
48264;DHT22;34086;51.076;13.722;2023-03-14T03:01:11;11.00;99.90
48264;DHT22;34086;51.076;13.722;2023-03-14T03:02:12;11.00;99.90
48264;DHT22;34086;51.076;13.722;2023-03-14T03:03:13;11.00;99.90
48264;DHT22;34086;51.076;13.722;2023-03-14T03:04:15;11.00;99.90
48264;DHT22;34086;51.076;13.722;2023-03-14T03:05:15;10.90;99.90
48264;DHT22;34086;51.076;13.722;2023-03-14T03:06:16;10.90;99.90
48264;DHT22;34086;51.076;13.722;2023-03-14T03:07:16;10.90;99.90
48264;DHT22;34086;51.076;13.722;2023-03-14T03:08:20;10.90;99.90
48264;DHT22;34086;51.076;13.722;2023-03-14T03:09:22;10.90;99.90
48264;DHT22;34086;51.076;13.722;2023-03-14T03:10:23;10.90;99.90
48264;DHT22;34086;51.076;13.722;2023-03-14T03:11:24;10.90;99.90
48264;DHT22;34086;51.076;13.722;2023-03-14T03:12:25;10.90;99.90
48264;DHT22;34086;51.076;13.722;2023-03-14T03:13:26;10.90;99.90
48264;DHT22;34086;51.076;13.722;2023-03-14T03:14:29;10.90;99.90
48264;DHT22;34086;51.076;13.722;2023-03-14T03:15:33;10.90;99.90
48264;DHT22;34086;51.076;13.722;2023-03-14T03:16:33;10.90;99.90
48264;DHT22;34086;51.076;13.722;2023-03-14T03:17:34;10.90;99.90
48264;DHT22;34086;51.076;13.722;2023-03-14T03:18:35;10.90;99.90
48264;DHT22;34086;51.076;13.722;2023-03-14T03:19:35;10.90;99.90
48264;DHT22;34086;51.076;13.722;2023-03-14T03:20:36;10.90;99.90
48264;DHT22;34086;51.076;13.722;2023-03-14T03:21:36;10.90;99.90
48264;DHT22;34086;51.076;13.722;2023-03-14T03:22:39;10.90;99.90
48264;DHT22;34086;51.076;13.722;2023-03-14T03:23:40;10.90;99.90
48264;DHT22;34086;51.076;13.722;2023-03-14T03:24:40;10.80;99.90
48264;DHT22;34086;51.076;13.722;2023-03-14T03:25:41;10.80;99.90
48264;DHT22;34086;51.076;13.722;2023-03-14T03:26:42;10.80;99.90
48264;DHT22;34086;51.076;13.722;2023-03-14T03:27:45;10.80;99.90
48264;DHT22;34086;51.076;13.722;2023-03-14T03:28:46;10.80;99.90
48264;DHT22;34086;51.076;13.722;2023-03-14T03:29:48;10.80;99.90
48264;DHT22;34086;51.076;13.722;2023-03-14T03:30:49;10.80;99.90
48264;DHT22;34086;51.076;13.722;2023-03-14T03:31:49;10.80;99.90
48264;DHT22;34086;51.076;13.722;2023-03-14T03:32:51;10.80;99.90
48264;DHT22;34086;51.076;13.722;2023-03-14T03:33:51;10.80;99.90
48264;DHT22;34086;51.076;13.722;2023-03-14T03:34:52;10.80;99.90
48264;DHT22;34086;51.076;13.722;2023-03-14T03:35:53;10.90;99.90
48264;DHT22;34086;51.076;13.722;2023-03-14T03:37:00;10.80;99.90
48264;DHT22;34086;51.076;13.722;2023-03-14T03:38:03;10.80;99.90
48264;DHT22;34086;51.076;13.722;2023-03-14T03:39:05;10.90;99.90
48264;DHT22;34086;51.076;13.722;2023-03-14T03:40:07;10.90;99.90
48264;DHT22;34086;51.076;13.722;2023-03-14T03:41:09;10.90;99.90
48264;DHT22;34086;51.076;13.722;2023-03-14T03:42:10;10.80;99.90
48264;DHT22;34086;51.076;13.722;2023-03-14T03:43:11;10.80;99.90
48264;DHT22;34086;51.076;13.722;2023-03-14T03:44:16;10.80;99.90
48264;DHT22;34086;51.076;13.722;2023-03-14T03:45:17;10.80;99.90
48264;DHT22;34086;51.076;13.722;2023-03-14T03:46:25;10.80;99.90
48264;DHT22;34086;51.076;13.722;2023-03-14T03:47:27;10.80;99.90
48264;DHT22;34086;51.076;13.722;2023-03-14T03:48:30;10.80;99.90
48264;DHT22;34086;51.076;13.722;2023-03-14T03:49:31;10.80;99.90
48264;DHT22;34086;51.076;13.722;2023-03-14T03:50:33;10.80;99.90
48264;DHT22;34086;51.076;13.722;2023-03-14T03:51:33;10.80;99.90
48264;DHT22;34086;51.076;13.722;2023-03-14T03:52:34;10.80;99.90
48264;DHT22;34086;51.076;13.722;2023-03-14T03:53:35;10.80;99.90
48264;DHT22;34086;51.076;13.722;2023-03-14T03:54:40;10.80;99.90
48264;DHT22;34086;51.076;13.722;2023-03-14T03:55:41;10.70;99.90
48264;DHT22;34086;51.076;13.722;2023-03-14T03:56:43;10.70;99.90
48264;DHT22;34086;51.076;13.722;2023-03-14T03:57:43;10.70;99.90
48264;DHT22;34086;51.076;13.722;2023-03-14T03:58:45;10.60;99.90
48264;DHT22;34086;51.076;13.722;2023-03-14T03:59:46;10.60;99.90
48264;DHT22;34086;51.076;13.722;2023-03-14T04:00:47;10.70;99.90
48264;DHT22;34086;51.076;13.722;2023-03-14T04:01:48;10.80;99.90
48264;DHT22;34086;51.076;13.722;2023-03-14T04:02:48;10.80;99.90
48264;DHT22;34086;51.076;13.722;2023-03-14T04:03:51;10.80;99.90
48264;DHT22;34086;51.076;13.722;2023-03-14T04:04:53;10.80;99.90
48264;DHT22;34086;51.076;13.722;2023-03-14T04:06:01;10.80;99.90
48264;DHT22;34086;51.076;13.722;2023-03-14T04:07:02;10.80;99.90
48264;DHT22;34086;51.076;13.722;2023-03-14T04:08:04;10.70;99.90
48264;DHT22;34086;51.076;13.722;2023-03-14T04:09:04;10.70;99.90
48264;DHT22;34086;51.076;13.722;2023-03-14T04:10:16;10.70;99.90
48264;DHT22;34086;51.076;13.722;2023-03-14T04:11:24;10.70;99.90
48264;DHT22;34086;51.076;13.722;2023-03-14T04:12:29;10.70;99.90
48264;DHT22;34086;51.076;13.722;2023-03-14T04:13:50;10.60;99.90
48264;DHT22;34086;51.076;13.722;2023-03-14T04:14:50;10.60;99.90
48264;DHT22;34086;51.076;13.722;2023-03-14T04:15:56;10.70;99.90
48264;DHT22;34086;51.076;13.722;2023-03-14T04:16:59;10.70;99.90
48264;DHT22;34086;51.076;13.722;2023-03-14T04:18:00;10.70;99.90
48264;DHT22;34086;51.076;13.722;2023-03-14T04:19:02;10.70;99.90
48264;DHT22;34086;51.076;13.722;2023-03-14T04:20:03;10.80;99.90
48264;DHT22;34086;51.076;13.722;2023-03-14T04:21:09;10.80;99.90
48264;DHT22;34086;51.076;13.722;2023-03-14T04:22:18;10.80;99.90
48264;DHT22;34086;51.076;13.722;2023-03-14T04:23:24;10.80;99.90
48264;DHT22;34086;51.076;13.722;2023-03-14T04:24:25;10.80;99.90
48264;DHT22;34086;51.076;13.722;2023-03-14T04:25:26;10.80;99.90
48264;DHT22;34086;51.076;13.722;2023-03-14T04:26:30;10.80;99.90
48264;DHT22;34086;51.076;13.722;2023-03-14T04:27:31;10.90;99.90
48264;DHT22;34086;51.076;13.722;2023-03-14T04:28:33;10.80;99.90
48264;DHT22;34086;51.076;13.722;2023-03-14T04:29:36;10.90;99.90
48264;DHT22;34086;51.076;13.722;2023-03-14T04:30:36;10.90;99.90
48264;DHT22;34086;51.076;13.722;2023-03-14T04:31:43;10.90;99.90
48264;DHT22;34086;51.076;13.722;2023-03-14T04:32:44;10.90;99.90
48264;DHT22;34086;51.076;13.722;2023-03-14T04:33:45;10.90;99.90
48264;DHT22;34086;51.076;13.722;2023-03-14T04:34:46;10.90;99.90
48264;DHT22;34086;51.076;13.722;2023-03-14T04:35:47;10.90;99.90
48264;DHT22;34086;51.076;13.722;2023-03-14T04:36:49;10.90;99.90
48264;DHT22;34086;51.076;13.722;2023-03-14T04:37:54;10.90;99.90
48264;DHT22;34086;51.076;13.722;2023-03-14T04:38:56;10.90;99.90
48264;DHT22;34086;51.076;13.722;2023-03-14T04:39:58;10.90;99.90
48264;DHT22;34086;51.076;13.722;2023-03-14T04:41:01;10.80;99.90
48264;DHT22;34086;51.076;13.722;2023-03-14T04:42:05;10.80;99.90
48264;DHT22;34086;51.076;13.722;2023-03-14T04:43:08;10.80;99.90
48264;DHT22;34086;51.076;13.722;2023-03-14T04:44:10;10.80;99.90
48264;DHT22;34086;51.076;13.722;2023-03-14T04:45:11;10.80;99.90
48264;DHT22;34086;51.076;13.722;2023-03-14T04:46:13;10.80;99.90
48264;DHT22;34086;51.076;13.722;2023-03-14T04:47:14;10.80;99.90
48264;DHT22;34086;51.076;13.722;2023-03-14T04:48:15;10.80;99.90
48264;DHT22;34086;51.076;13.722;2023-03-14T04:49:17;10.90;99.90
48264;DHT22;34086;51.076;13.722;2023-03-14T04:50:18;11.00;99.90
48264;DHT22;34086;51.076;13.722;2023-03-14T04:51:20;11.10;99.90
48264;DHT22;34086;51.076;13.722;2023-03-14T04:52:23;11.10;99.90
48264;DHT22;34086;51.076;13.722;2023-03-14T04:53:23;11.20;99.90
48264;DHT22;34086;51.076;13.722;2023-03-14T04:54:27;11.20;99.90
48264;DHT22;34086;51.076;13.722;2023-03-14T04:55:32;11.20;99.90
48264;DHT22;34086;51.076;13.722;2023-03-14T04:56:32;11.20;99.90
48264;DHT22;34086;51.076;13.722;2023-03-14T04:57:35;11.20;99.90
48264;DHT22;34086;51.076;13.722;2023-03-14T04:58:35;11.30;99.90
48264;DHT22;34086;51.076;13.722;2023-03-14T04:59:37;11.20;99.90
48264;DHT22;34086;51.076;13.722;2023-03-14T05:01:02;11.20;99.90
48264;DHT22;34086;51.076;13.722;2023-03-14T05:02:14;11.20;99.90
48264;DHT22;34086;51.076;13.722;2023-03-14T05:03:23;11.20;99.90
48264;DHT22;34086;51.076;13.722;2023-03-14T05:04:47;11.20;99.90
48264;DHT22;34086;51.076;13.722;2023-03-14T05:06:07;11.20;99.90
48264;DHT22;34086;51.076;13.722;2023-03-14T05:07:33;11.20;99.90
48264;DHT22;34086;51.076;13.722;2023-03-14T05:08:54;11.10;99.90
48264;DHT22;34086;51.076;13.722;2023-03-14T05:10:09;11.10;99.90
48264;DHT22;34086;51.076;13.722;2023-03-14T05:11:33;11.10;99.90
48264;DHT22;34086;51.076;13.722;2023-03-14T05:12:53;11.10;99.90
48264;DHT22;34086;51.076;13.722;2023-03-14T05:14:17;11.00;99.90
48264;DHT22;34086;51.076;13.722;2023-03-14T05:15:31;11.00;99.90
48264;DHT22;34086;51.076;13.722;2023-03-14T05:16:47;11.10;99.90
48264;DHT22;34086;51.076;13.722;2023-03-14T05:18:12;11.00;99.90
48264;DHT22;34086;51.076;13.722;2023-03-14T05:19:38;11.10;99.90
48264;DHT22;34086;51.076;13.722;2023-03-14T05:21:05;11.00;99.90
48264;DHT22;34086;51.076;13.722;2023-03-14T05:22:26;11.10;99.90
48264;DHT22;34086;51.076;13.722;2023-03-14T05:23:52;11.20;99.90
48264;DHT22;34086;51.076;13.722;2023-03-14T05:25:07;11.20;99.90
48264;DHT22;34086;51.076;13.722;2023-03-14T05:26:26;11.20;99.90
48264;DHT22;34086;51.076;13.722;2023-03-14T05:27:40;11.20;99.90
48264;DHT22;34086;51.076;13.722;2023-03-14T05:28:59;11.20;99.90
48264;DHT22;34086;51.076;13.722;2023-03-14T05:30:32;11.20;99.90
48264;DHT22;34086;51.076;13.722;2023-03-14T05:31:52;11.20;99.90
48264;DHT22;34086;51.076;13.722;2023-03-14T05:33:11;11.20;99.90
48264;DHT22;34086;51.076;13.722;2023-03-14T05:34:22;11.20;99.90
48264;DHT22;34086;51.076;13.722;2023-03-14T05:35:38;11.10;99.90
48264;DHT22;34086;51.076;13.722;2023-03-14T05:36:51;11.10;99.90
48264;DHT22;34086;51.076;13.722;2023-03-14T05:38:02;11.10;99.90
48264;DHT22;34086;51.076;13.722;2023-03-14T05:39:15;11.20;99.90
48264;DHT22;34086;51.076;13.722;2023-03-14T05:40:36;11.20;99.90
48264;DHT22;34086;51.076;13.722;2023-03-14T05:41:43;11.10;99.90
48264;DHT22;34086;51.076;13.722;2023-03-14T05:43:02;11.20;99.90
48264;DHT22;34086;51.076;13.722;2023-03-14T05:44:22;11.20;99.90
48264;DHT22;34086;51.076;13.722;2023-03-14T05:45:42;11.10;99.90
48264;DHT22;34086;51.076;13.722;2023-03-14T05:47:18;11.10;99.90
48264;DHT22;34086;51.076;13.722;2023-03-14T05:48:38;11.00;99.90
48264;DHT22;34086;51.076;13.722;2023-03-14T05:50:01;11.10;99.90
48264;DHT22;34086;51.076;13.722;2023-03-14T05:51:25;11.10;99.90
48264;DHT22;34086;51.076;13.722;2023-03-14T05:52:49;11.20;99.90
48264;DHT22;34086;51.076;13.722;2023-03-14T05:54:03;11.30;99.90
48264;DHT22;34086;51.076;13.722;2023-03-14T05:55:36;11.20;99.90
48264;DHT22;34086;51.076;13.722;2023-03-14T05:56:55;11.20;99.90
48264;DHT22;34086;51.076;13.722;2023-03-14T05:58:12;11.10;99.90
48264;DHT22;34086;51.076;13.722;2023-03-14T05:59:34;11.10;99.90
48264;DHT22;34086;51.076;13.722;2023-03-14T06:00:44;11.00;99.90
48264;DHT22;34086;51.076;13.722;2023-03-14T06:01:54;11.00;99.90
48264;DHT22;34086;51.076;13.722;2023-03-14T06:02:58;11.00;99.90
48264;DHT22;34086;51.076;13.722;2023-03-14T06:04:04;11.10;99.90
48264;DHT22;34086;51.076;13.722;2023-03-14T06:05:05;11.10;99.90
48264;DHT22;34086;51.076;13.722;2023-03-14T06:06:06;11.00;99.90
48264;DHT22;34086;51.076;13.722;2023-03-14T06:07:06;11.10;99.90
48264;DHT22;34086;51.076;13.722;2023-03-14T06:08:08;11.00;99.90
48264;DHT22;34086;51.076;13.722;2023-03-14T06:09:09;11.10;99.90
48264;DHT22;34086;51.076;13.722;2023-03-14T06:10:13;11.10;99.90
48264;DHT22;34086;51.076;13.722;2023-03-14T06:11:13;11.10;99.90
48264;DHT22;34086;51.076;13.722;2023-03-14T06:12:14;11.10;99.90
48264;DHT22;34086;51.076;13.722;2023-03-14T06:13:17;11.10;99.90
48264;DHT22;34086;51.076;13.722;2023-03-14T06:14:18;11.10;99.90
48264;DHT22;34086;51.076;13.722;2023-03-14T06:15:21;11.10;99.90
48264;DHT22;34086;51.076;13.722;2023-03-14T06:16:24;11.10;99.90
48264;DHT22;34086;51.076;13.722;2023-03-14T06:17:27;11.20;99.90
48264;DHT22;34086;51.076;13.722;2023-03-14T06:18:42;11.20;99.90
48264;DHT22;34086;51.076;13.722;2023-03-14T06:19:44;11.20;99.90
48264;DHT22;34086;51.076;13.722;2023-03-14T06:20:47;11.30;99.90
48264;DHT22;34086;51.076;13.722;2023-03-14T06:21:55;11.20;99.90
48264;DHT22;34086;51.076;13.722;2023-03-14T06:22:58;11.30;99.90
48264;DHT22;34086;51.076;13.722;2023-03-14T06:23:59;11.20;99.90
48264;DHT22;34086;51.076;13.722;2023-03-14T06:25:02;11.20;99.90
48264;DHT22;34086;51.076;13.722;2023-03-14T06:26:04;11.20;99.90
48264;DHT22;34086;51.076;13.722;2023-03-14T06:27:05;11.20;99.90
48264;DHT22;34086;51.076;13.722;2023-03-14T06:28:05;11.30;99.90
48264;DHT22;34086;51.076;13.722;2023-03-14T06:29:06;11.30;99.90
48264;DHT22;34086;51.076;13.722;2023-03-14T06:30:09;11.30;99.90
48264;DHT22;34086;51.076;13.722;2023-03-14T06:31:10;11.30;99.90
48264;DHT22;34086;51.076;13.722;2023-03-14T06:32:20;11.30;99.90
48264;DHT22;34086;51.076;13.722;2023-03-14T06:33:23;11.30;99.90
48264;DHT22;34086;51.076;13.722;2023-03-14T06:34:24;11.30;99.90
48264;DHT22;34086;51.076;13.722;2023-03-14T06:35:27;11.30;99.90
48264;DHT22;34086;51.076;13.722;2023-03-14T06:36:28;11.30;99.90
48264;DHT22;34086;51.076;13.722;2023-03-14T06:37:29;11.30;99.90
48264;DHT22;34086;51.076;13.722;2023-03-14T06:38:29;11.30;99.90
48264;DHT22;34086;51.076;13.722;2023-03-14T06:39:31;11.30;99.90
48264;DHT22;34086;51.076;13.722;2023-03-14T06:40:39;11.30;99.90
48264;DHT22;34086;51.076;13.722;2023-03-14T06:41:43;11.30;99.90
48264;DHT22;34086;51.076;13.722;2023-03-14T06:42:45;11.40;99.90
48264;DHT22;34086;51.076;13.722;2023-03-14T06:43:47;11.40;99.90
48264;DHT22;34086;51.076;13.722;2023-03-14T06:44:48;11.40;99.90
48264;DHT22;34086;51.076;13.722;2023-03-14T06:45:49;11.40;99.90
48264;DHT22;34086;51.076;13.722;2023-03-14T06:46:49;11.40;99.90
48264;DHT22;34086;51.076;13.722;2023-03-14T06:47:50;11.40;99.90
48264;DHT22;34086;51.076;13.722;2023-03-14T06:48:54;11.40;99.90
48264;DHT22;34086;51.076;13.722;2023-03-14T06:49:54;11.40;99.90
48264;DHT22;34086;51.076;13.722;2023-03-14T06:50:55;11.40;99.90